sensor_id;sensor_type;location;lat;lon;timestamp;P1;durP1;ratioP1;P2;durP2;ratioP2
9264;SDS011;4669;49.594;10.958;2022-11-18T05:23:11;10.43;;;8.38;;
9264;SDS011;4669;49.594;10.958;2022-11-18T05:28:13;8.82;;;6.93;;
9264;SDS011;4669;49.594;10.958;2022-11-18T05:33:15;9.60;;;7.13;;
9264;SDS011;4669;49.594;10.958;2022-11-18T05:38:18;10.00;;;6.90;;
9264;SDS011;4669;49.594;10.958;2022-11-18T05:43:20;9.75;;;7.22;;
9264;SDS011;4669;49.594;10.958;2022-11-18T05:48:22;9.38;;;7.55;;
9264;SDS011;4669;49.594;10.958;2022-11-18T05:53:26;8.25;;;7.30;;
9264;SDS011;4669;49.594;10.958;2022-11-18T05:58:28;9.55;;;6.88;;
9264;SDS011;4669;49.594;10.958;2022-11-18T06:03:31;8.18;;;6.35;;
9264;SDS011;4669;49.594;10.958;2022-11-18T06:08:39;5.80;;;5.22;;
9264;SDS011;4669;49.594;10.958;2022-11-18T06:13:47;5.75;;;5.10;;
9264;SDS011;4669;49.594;10.958;2022-11-18T06:18:53;7.93;;;6.05;;
9264;SDS011;4669;49.594;10.958;2022-11-18T06:23:57;9.38;;;5.07;;
9264;SDS011;4669;49.594;10.958;2022-11-18T06:29:01;7.15;;;4.47;;
9264;SDS011;4669;49.594;10.958;2022-11-18T06:34:04;8.02;;;7.28;;
9264;SDS011;4669;49.594;10.958;2022-11-18T06:39:07;12.77;;;9.05;;
9264;SDS011;4669;49.594;10.958;2022-11-18T06:44:10;4.45;;;3.95;;
9264;SDS011;4669;49.594;10.958;2022-11-18T06:49:12;5.35;;;4.25;;
9264;SDS011;4669;49.594;10.958;2022-11-18T06:54:15;6.57;;;5.45;;
9264;SDS011;4669;49.594;10.958;2022-11-18T06:59:18;7.22;;;4.55;;
9264;SDS011;4669;49.594;10.958;2022-11-18T07:04:22;5.38;;;4.70;;
9264;SDS011;4669;49.594;10.958;2022-11-18T07:09:26;5.03;;;4.32;;
9264;SDS011;4669;49.594;10.958;2022-11-18T07:14:28;4.50;;;4.10;;
9264;SDS011;4669;49.594;10.958;2022-11-18T07:19:30;7.65;;;4.60;;
9264;SDS011;4669;49.594;10.958;2022-11-18T07:24:33;4.88;;;4.38;;
9264;SDS011;4669;49.594;10.958;2022-11-18T07:29:37;4.70;;;4.20;;
9264;SDS011;4669;49.594;10.958;2022-11-18T07:34:39;5.97;;;5.13;;
9264;SDS011;4669;49.594;10.958;2022-11-18T07:39:42;5.13;;;4.57;;
9264;SDS011;4669;49.594;10.958;2022-11-18T07:44:44;4.18;;;3.80;;
9264;SDS011;4669;49.594;10.958;2022-11-18T07:49:46;5.72;;;3.63;;
9264;SDS011;4669;49.594;10.958;2022-11-18T07:54:50;3.15;;;2.85;;
9264;SDS011;4669;49.594;10.958;2022-11-18T07:59:52;2.33;;;2.13;;
9264;SDS011;4669;49.594;10.958;2022-11-18T08:04:54;4.45;;;3.97;;
9264;SDS011;4669;49.594;10.958;2022-11-18T08:09:57;3.65;;;2.63;;
9264;SDS011;4669;49.594;10.958;2022-11-18T08:14:59;2.80;;;2.55;;
9264;SDS011;4669;49.594;10.958;2022-11-18T08:20:01;3.72;;;2.10;;
9264;SDS011;4669;49.594;10.958;2022-11-18T08:25:06;1.88;;;1.77;;
9264;SDS011;4669;49.594;10.958;2022-11-18T08:30:09;1.98;;;1.65;;
9264;SDS011;4669;49.594;10.958;2022-11-18T08:35:12;1.27;;;1.08;;
9264;SDS011;4669;49.594;10.958;2022-11-18T08:40:15;1.15;;;1.00;;
9264;SDS011;4669;49.594;10.958;2022-11-18T08:45:17;1.10;;;0.70;;
9264;SDS011;4669;49.594;10.958;2022-11-18T08:50:19;0.75;;;0.75;;
9264;SDS011;4669;49.594;10.958;2022-11-18T08:55:23;2.50;;;1.20;;
9264;SDS011;4669;49.594;10.958;2022-11-18T09:00:25;4.55;;;3.03;;
9264;SDS011;4669;49.594;10.958;2022-11-18T09:05:27;1.10;;;0.85;;
9264;SDS011;4669;49.594;10.958;2022-11-18T09:10:30;3.13;;;0.88;;
9264;SDS011;4669;49.594;10.958;2022-11-18T09:15:34;0.75;;;0.75;;
9264;SDS011;4669;49.594;10.958;2022-11-18T09:20:36;0.70;;;0.70;;
9264;SDS011;4669;49.594;10.958;2022-11-18T09:25:40;0.73;;;0.73;;
9264;SDS011;4669;49.594;10.958;2022-11-18T09:30:42;1.20;;;1.00;;
9264;SDS011;4669;49.594;10.958;2022-11-18T09:35:44;1.25;;;1.10;;
9264;SDS011;4669;49.594;10.958;2022-11-18T09:40:49;4.38;;;2.10;;
9264;SDS011;4669;49.594;10.958;2022-11-18T09:46:02;1.17;;;1.08;;
9264;SDS011;4669;49.594;10.958;2022-11-18T09:51:16;1.20;;;0.73;;
9264;SDS011;4669;49.594;10.958;2022-11-18T09:56:20;0.95;;;0.95;;
9264;SDS011;4669;49.594;10.958;2022-11-18T10:01:22;1.23;;;1.00;;
9264;SDS011;4669;49.594;10.958;2022-11-18T10:06:25;1.02;;;0.90;;
9264;SDS011;4669;49.594;10.958;2022-11-18T10:11:32;0.77;;;0.60;;
9264;SDS011;4669;49.594;10.958;2022-11-18T10:16:42;1.60;;;0.77;;
9264;SDS011;4669;49.594;10.958;2022-11-18T10:21:51;0.57;;;0.57;;
9264;SDS011;4669;49.594;10.958;2022-11-18T10:27:32;0.70;;;0.70;;
9264;SDS011;4669;49.594;10.958;2022-11-18T10:32:51;0.60;;;0.60;;
9264;SDS011;4669;49.594;10.958;2022-11-18T10:38:01;0.68;;;0.68;;
9264;SDS011;4669;49.594;10.958;2022-11-18T10:43:08;0.70;;;0.70;;
9264;SDS011;4669;49.594;10.958;2022-11-18T10:48:16;1.00;;;0.90;;
9264;SDS011;4669;49.594;10.958;2022-11-18T10:53:28;0.90;;;0.80;;
9264;SDS011;4669;49.594;10.958;2022-11-18T10:58:34;1.45;;;0.93;;
9264;SDS011;4669;49.594;10.958;2022-11-18T11:03:38;0.90;;;0.90;;
9264;SDS011;4669;49.594;10.958;2022-11-18T11:08:46;2.38;;;1.20;;
9264;SDS011;4669;49.594;10.958;2022-11-18T11:13:50;1.50;;;1.10;;
9264;SDS011;4669;49.594;10.958;2022-11-18T11:18:55;1.27;;;1.15;;
9264;SDS011;4669;49.594;10.958;2022-11-18T11:24:01;1.48;;;1.33;;
9264;SDS011;4669;49.594;10.958;2022-11-18T11:29:12;1.27;;;1.17;;
9264;SDS011;4669;49.594;10.958;2022-11-18T11:34:23;1.52;;;1.17;;
9264;SDS011;4669;49.594;10.958;2022-11-18T11:45:05;1.00;;;1.00;;
9264;SDS011;4669;49.594;10.958;2022-11-18T11:50:20;1.60;;;1.50;;
9264;SDS011;4669;49.594;10.958;2022-11-18T11:55:29;1.63;;;1.52;;
9264;SDS011;4669;49.594;10.958;2022-11-18T12:00:38;1.48;;;1.38;;
9264;SDS011;4669;49.594;10.958;2022-11-18T12:05:44;2.35;;;1.38;;
9264;SDS011;4669;49.594;10.958;2022-11-18T12:10:47;1.20;;;1.20;;
9264;SDS011;4669;49.594;10.958;2022-11-18T12:15:59;1.85;;;1.45;;
9264;SDS011;4669;49.594;10.958;2022-11-18T12:21:06;1.30;;;1.25;;
9264;SDS011;4669;49.594;10.958;2022-11-18T12:26:08;1.55;;;1.45;;
9264;SDS011;4669;49.594;10.958;2022-11-18T12:36:37;1.50;;;1.40;;
9264;SDS011;4669;49.594;10.958;2022-11-18T12:41:51;1.45;;;1.35;;
9264;SDS011;4669;49.594;10.958;2022-11-18T12:47:13;1.55;;;1.45;;
9264;SDS011;4669;49.594;10.958;2022-11-18T12:57:46;1.60;;;1.50;;
9264;SDS011;4669;49.594;10.958;2022-11-18T13:02:53;2.03;;;1.83;;
9264;SDS011;4669;49.594;10.958;2022-11-18T13:07:57;3.03;;;2.05;;
9264;SDS011;4669;49.594;10.958;2022-11-18T13:13:18;4.18;;;3.63;;
9264;SDS011;4669;49.594;10.958;2022-11-18T13:18:26;2.60;;;2.40;;
9264;SDS011;4669;49.594;10.958;2022-11-18T13:23:29;3.15;;;2.45;;
9264;SDS011;4669;49.594;10.958;2022-11-18T13:28:59;2.40;;;2.17;;
9264;SDS011;4669;49.594;10.958;2022-11-18T13:34:11;4.75;;;2.80;;
9264;SDS011;4669;49.594;10.958;2022-11-18T13:39:19;2.50;;;2.38;;
9264;SDS011;4669;49.594;10.958;2022-11-18T13:44:24;2.78;;;2.55;;
9264;SDS011;4669;49.594;10.958;2022-11-18T13:49:34;2.33;;;2.13;;
9264;SDS011;4669;49.594;10.958;2022-11-18T13:54:45;2.05;;;1.70;;
9264;SDS011;4669;49.594;10.958;2022-11-18T13:59:48;1.95;;;1.67;;
9264;SDS011;4669;49.594;10.958;2022-11-18T14:04:53;2.30;;;1.60;;
9264;SDS011;4669;49.594;10.958;2022-11-18T14:09:58;2.78;;;1.83;;
9264;SDS011;4669;49.594;10.958;2022-11-18T14:15:20;2.40;;;2.20;;
9264;SDS011;4669;49.594;10.958;2022-11-18T14:20:25;2.00;;;1.90;;
9264;SDS011;4669;49.594;10.958;2022-11-18T14:25:29;1.90;;;1.80;;
9264;SDS011;4669;49.594;10.958;2022-11-18T14:30:33;2.03;;;1.90;;
9264;SDS011;4669;49.594;10.958;2022-11-18T14:35:37;2.20;;;2.00;;
9264;SDS011;4669;49.594;10.958;2022-11-18T14:40:40;2.42;;;2.08;;
9264;SDS011;4669;49.594;10.958;2022-11-18T14:45:42;4.20;;;2.20;;
9264;SDS011;4669;49.594;10.958;2022-11-18T14:50:45;2.35;;;2.10;;
9264;SDS011;4669;49.594;10.958;2022-11-18T14:55:48;2.60;;;2.00;;
9264;SDS011;4669;49.594;10.958;2022-11-18T15:00:52;2.35;;;2.15;;
9264;SDS011;4669;49.594;10.958;2022-11-18T15:05:55;4.20;;;2.08;;
9264;SDS011;4669;49.594;10.958;2022-11-18T15:10:57;6.78;;;6.05;;
9264;SDS011;4669;49.594;10.958;2022-11-18T15:16:00;3.00;;;2.72;;
9264;SDS011;4669;49.594;10.958;2022-11-18T15:21:04;3.35;;;2.90;;
9264;SDS011;4669;49.594;10.958;2022-11-18T15:26:11;5.53;;;3.28;;
9264;SDS011;4669;49.594;10.958;2022-11-18T15:31:18;4.07;;;3.67;;
9264;SDS011;4669;49.594;10.958;2022-11-18T15:36:23;4.47;;;3.65;;
9264;SDS011;4669;49.594;10.958;2022-11-18T15:41:28;3.88;;;3.50;;
9264;SDS011;4669;49.594;10.958;2022-11-18T15:46:31;4.55;;;3.65;;
9264;SDS011;4669;49.594;10.958;2022-11-18T15:51:35;3.72;;;3.30;;
9264;SDS011;4669;49.594;10.958;2022-11-18T15:56:37;4.53;;;4.07;;
9264;SDS011;4669;49.594;10.958;2022-11-18T16:01:41;4.75;;;4.40;;
9264;SDS011;4669;49.594;10.958;2022-11-18T16:06:46;5.38;;;4.05;;
9264;SDS011;4669;49.594;10.958;2022-11-18T16:11:48;5.97;;;4.63;;
9264;SDS011;4669;49.594;10.958;2022-11-18T16:17:10;9.27;;;6.85;;
9264;SDS011;4669;49.594;10.958;2022-11-18T16:22:13;6.00;;;5.40;;
9264;SDS011;4669;49.594;10.958;2022-11-18T16:27:15;5.32;;;4.82;;
9264;SDS011;4669;49.594;10.958;2022-11-18T16:32:17;6.63;;;4.88;;
9264;SDS011;4669;49.594;10.958;2022-11-18T16:37:20;5.10;;;4.70;;
9264;SDS011;4669;49.594;10.958;2022-11-18T16:42:22;5.38;;;4.88;;
9264;SDS011;4669;49.594;10.958;2022-11-18T16:47:24;5.13;;;4.70;;
9264;SDS011;4669;49.594;10.958;2022-11-18T19:25:40;2.40;;;2.20;;
9264;SDS011;4669;49.594;10.958;2022-11-18T19:30:43;2.33;;;2.13;;
9264;SDS011;4669;49.594;10.958;2022-11-18T19:35:45;2.70;;;2.40;;
9264;SDS011;4669;49.594;10.958;2022-11-18T19:40:48;2.10;;;2.00;;
9264;SDS011;4669;49.594;10.958;2022-11-18T19:45:50;6.85;;;4.65;;
9264;SDS011;4669;49.594;10.958;2022-11-18T19:50:52;2.58;;;2.38;;
9264;SDS011;4669;49.594;10.958;2022-11-18T19:56:06;2.50;;;2.30;;
9264;SDS011;4669;49.594;10.958;2022-11-18T20:01:11;2.63;;;2.42;;
9264;SDS011;4669;49.594;10.958;2022-11-18T20:06:15;3.80;;;2.50;;
9264;SDS011;4669;49.594;10.958;2022-11-18T20:11:20;5.30;;;3.40;;
9264;SDS011;4669;49.594;10.958;2022-11-18T20:16:23;3.45;;;2.35;;
9264;SDS011;4669;49.594;10.958;2022-11-18T20:21:26;3.30;;;3.00;;
9264;SDS011;4669;49.594;10.958;2022-11-18T20:26:31;3.33;;;3.03;;
9264;SDS011;4669;49.594;10.958;2022-11-18T20:31:34;2.90;;;2.70;;
9264;SDS011;4669;49.594;10.958;2022-11-18T20:36:37;2.80;;;2.60;;
9264;SDS011;4669;49.594;10.958;2022-11-18T20:41:40;2.47;;;2.28;;
9264;SDS011;4669;49.594;10.958;2022-11-18T20:46:42;2.78;;;1.90;;
9264;SDS011;4669;49.594;10.958;2022-11-18T20:51:44;1.70;;;1.60;;
9264;SDS011;4669;49.594;10.958;2022-11-18T20:56:47;3.63;;;1.60;;
9264;SDS011;4669;49.594;10.958;2022-11-18T21:01:49;2.28;;;2.08;;
9264;SDS011;4669;49.594;10.958;2022-11-18T21:06:51;1.73;;;1.63;;
9264;SDS011;4669;49.594;10.958;2022-11-18T21:11:59;1.75;;;1.60;;
9264;SDS011;4669;49.594;10.958;2022-11-18T21:17:02;2.88;;;2.63;;
9264;SDS011;4669;49.594;10.958;2022-11-18T21:22:04;2.28;;;2.17;;
9264;SDS011;4669;49.594;10.958;2022-11-18T21:27:07;2.30;;;2.20;;
9264;SDS011;4669;49.594;10.958;2022-11-18T21:32:09;2.72;;;2.53;;
9264;SDS011;4669;49.594;10.958;2022-11-18T21:37:11;6.18;;;2.38;;
9264;SDS011;4669;49.594;10.958;2022-11-18T21:42:15;2.20;;;2.00;;
9264;SDS011;4669;49.594;10.958;2022-11-18T21:47:17;2.00;;;1.80;;
9264;SDS011;4669;49.594;10.958;2022-11-18T21:52:19;2.00;;;1.90;;
9264;SDS011;4669;49.594;10.958;2022-11-18T21:57:22;1.80;;;1.70;;
9264;SDS011;4669;49.594;10.958;2022-11-18T22:02:24;2.40;;;2.20;;
9264;SDS011;4669;49.594;10.958;2022-11-18T22:07:26;2.30;;;2.10;;
9264;SDS011;4669;49.594;10.958;2022-11-18T22:12:30;2.60;;;2.40;;
9264;SDS011;4669;49.594;10.958;2022-11-18T22:17:32;2.55;;;2.10;;
9264;SDS011;4669;49.594;10.958;2022-11-18T22:22:34;2.65;;;2.38;;
9264;SDS011;4669;49.594;10.958;2022-11-18T22:27:38;2.60;;;2.40;;
9264;SDS011;4669;49.594;10.958;2022-11-18T22:32:39;2.60;;;2.40;;
9264;SDS011;4669;49.594;10.958;2022-11-18T22:37:42;2.90;;;2.60;;
9264;SDS011;4669;49.594;10.958;2022-11-18T22:42:46;2.95;;;2.72;;
9264;SDS011;4669;49.594;10.958;2022-11-18T22:47:49;2.97;;;2.78;;
9264;SDS011;4669;49.594;10.958;2022-11-18T22:52:51;2.90;;;2.70;;
9264;SDS011;4669;49.594;10.958;2022-11-18T22:57:55;3.95;;;3.63;;
9264;SDS011;4669;49.594;10.958;2022-11-18T23:02:57;4.32;;;3.92;;
9264;SDS011;4669;49.594;10.958;2022-11-18T23:07:59;3.80;;;3.50;;
9264;SDS011;4669;49.594;10.958;2022-11-18T23:13:02;4.35;;;4.05;;
9264;SDS011;4669;49.594;10.958;2022-11-18T23:18:21;4.93;;;4.53;;
9264;SDS011;4669;49.594;10.958;2022-11-18T23:23:24;4.60;;;4.22;;
9264;SDS011;4669;49.594;10.958;2022-11-18T23:28:27;5.30;;;4.82;;
9264;SDS011;4669;49.594;10.958;2022-11-18T23:33:29;6.57;;;5.97;;
9264;SDS011;4669;49.594;10.958;2022-11-18T23:38:31;7.30;;;6.68;;
9264;SDS011;4669;49.594;10.958;2022-11-18T23:43:35;7.07;;;6.45;;
9264;SDS011;4669;49.594;10.958;2022-11-18T23:48:38;8.90;;;8.20;;
9264;SDS011;4669;49.594;10.958;2022-11-18T23:53:41;9.88;;;8.52;;
9264;SDS011;4669;49.594;10.958;2022-11-18T23:58:47;10.60;;;9.60;;
